Time;durP1;ratioP1;P1;durP2;ratioP2;P2;SDS_P1;SDS_P2;PMS_P1;PMS_P2;Temp;Humidity;BMP_temperature;BMP_pressure;BME280_temperature;BME280_humidity;BME280_pressure;Samples;Min_cycle;Max_cycle;Signal;HPM_P1;HPM_P2
2023/05/23 00:01:24;;;;;;;10.27;5.97;;;;;;;;;;5073569;28;20024;-82
2023/05/23 00:03:54;;;;;;;10.85;6.32;;;;;;;;;;5053238;28;20098;-84
2023/05/23 00:06:20;;;;;;;10.00;5.88;;;;;;;;;;5072472;28;20028;-81
2023/05/23 00:08:46;;;;;;;9.48;5.93;;;;;;;;;;5050755;28;20035;-84
2023/05/23 00:11:12;;;;;;;9.60;5.63;;;;;;;;;;5070362;28;20514;-83
2023/05/23 00:13:38;;;;;;;10.73;5.53;;;;;;;;;;5074281;28;20029;-84
2023/05/23 00:16:08;;;;;;;10.60;5.68;;;;;;;;;;5068521;28;20025;-84
2023/05/23 00:18:34;;;;;;;9.52;5.38;;;;;;;;;;5054957;28;20029;-84
2023/05/23 00:21:01;;;;;;;9.90;4.95;;;;;;;;;;5034342;28;20036;-83
2023/05/23 00:23:28;;;;;;;11.85;5.85;;;;;;;;;;5070921;28;20362;-84
2023/05/23 00:25:54;;;;;;;11.73;6.50;;;;;;;;;;5071129;28;20056;-83
2023/05/23 00:28:21;;;;;;;12.30;5.88;;;;;;;;;;5048035;28;20500;-83
2023/05/23 00:30:50;;;;;;;8.48;4.53;;;;;;;;;;5067648;28;20028;-83
2023/05/23 00:33:20;;;;;;;9.13;4.78;;;;;;;;;;5070418;28;20027;-84
2023/05/23 00:35:46;;;;;;;14.35;6.93;;;;;;;;;;5071291;28;20074;-83
2023/05/23 00:38:13;;;;;;;12.90;5.97;;;;;;;;;;5052740;28;20028;-83
2023/05/23 00:40:39;;;;;;;10.18;5.60;;;;;;;;;;5072327;28;20057;-83
2023/05/23 00:43:07;;;;;;;8.25;5.30;;;;;;;;;;5062042;28;20020;-82
2023/05/23 00:45:33;;;;;;;13.82;5.47;;;;;;;;;;5061343;28;20116;-84
2023/05/23 00:47:59;;;;;;;10.15;5.70;;;;;;;;;;5040587;28;20127;-83
2023/05/23 00:50:28;;;;;;;11.07;6.00;;;;;;;;;;5064858;28;20107;-83
2023/05/23 00:52:54;;;;;;;9.88;5.75;;;;;;;;;;5059240;28;20032;-83
2023/05/23 00:55:20;;;;;;;11.45;6.18;;;;;;;;;;5056915;28;20088;-83
2023/05/23 00:57:47;;;;;;;10.95;5.65;;;;;;;;;;5049852;28;20040;-83
2023/05/23 01:00:14;;;;;;;9.60;5.93;;;;;;;;;;5066811;28;20028;-83
2023/05/23 01:02:43;;;;;;;11.40;6.35;;;;;;;;;;5048528;28;20025;-83
2023/05/23 01:05:13;;;;;;;12.23;6.45;;;;;;;;;;5045504;28;20120;-83
2023/05/23 01:07:49;;;;;;;11.80;6.03;;;;;;;;;;5061435;28;20056;-83
2023/05/23 01:10:16;;;;;;;12.20;5.80;;;;;;;;;;5063697;28;20035;-82
2023/05/23 01:12:56;;;;;;;11.68;6.35;;;;;;;;;;5071150;28;20036;-83
2023/05/23 01:15:25;;;;;;;9.65;5.93;;;;;;;;;;5048648;28;20497;-83
2023/05/23 01:17:51;;;;;;;14.80;7.05;;;;;;;;;;5058879;28;20060;-84
2023/05/23 01:20:20;;;;;;;12.27;5.47;;;;;;;;;;5059961;28;20028;-84
2023/05/23 01:22:59;;;;;;;11.95;6.60;;;;;;;;;;5061697;28;20060;-84
2023/05/23 01:25:45;;;;;;;11.35;6.00;;;;;;;;;;5051671;28;20024;-84
2023/05/23 01:28:12;;;;;;;12.40;5.95;;;;;;;;;;5051803;28;20669;-83
2023/05/23 01:30:39;;;;;;;11.65;6.38;;;;;;;;;;5055688;28;20110;-83
2023/05/23 01:33:07;;;;;;;14.70;6.95;;;;;;;;;;5057767;28;20024;-84
2023/05/23 01:35:34;;;;;;;13.20;6.32;;;;;;;;;;5050283;28;20043;-83
2023/05/23 01:38:00;;;;;;;11.73;7.00;;;;;;;;;;5050629;28;20115;-83
2023/05/23 01:40:27;;;;;;;8.30;4.93;;;;;;;;;;5048764;28;20499;-83
2023/05/23 01:42:53;;;;;;;9.57;6.03;;;;;;;;;;5073649;28;20021;-84
2023/05/23 01:45:20;;;;;;;15.38;7.38;;;;;;;;;;5059081;28;20030;-84
2023/05/23 01:47:47;;;;;;;10.35;6.30;;;;;;;;;;5059330;28;20033;-84
2023/05/23 01:50:13;;;;;;;11.60;6.25;;;;;;;;;;5049109;28;20025;-84
2023/05/23 01:52:40;;;;;;;12.80;6.72;;;;;;;;;;5037137;28;20037;-83
2023/05/23 01:55:08;;;;;;;12.43;6.35;;;;;;;;;;5064702;28;20032;-83
2023/05/23 01:57:35;;;;;;;11.30;6.13;;;;;;;;;;5075673;28;20462;-83
2023/05/23 02:00:01;;;;;;;12.25;6.95;;;;;;;;;;5067064;28;20026;-85
2023/05/23 02:02:28;;;;;;;14.38;6.97;;;;;;;;;;5064188;28;20036;-84
2023/05/23 02:04:56;;;;;;;13.18;7.18;;;;;;;;;;5050940;28;20435;-84
2023/05/23 02:07:22;;;;;;;10.35;5.55;;;;;;;;;;5055884;28;20021;-83
2023/05/23 02:09:48;;;;;;;10.68;6.03;;;;;;;;;;5054816;28;20439;-84
2023/05/23 02:12:14;;;;;;;10.15;6.43;;;;;;;;;;5047765;28;20012;-83
2023/05/23 02:14:41;;;;;;;12.98;6.13;;;;;;;;;;5059659;28;20391;-84
2023/05/23 02:17:08;;;;;;;12.20;5.80;;;;;;;;;;5059969;28;20397;-83
2023/05/23 02:19:35;;;;;;;10.18;5.05;;;;;;;;;;5050900;28;20501;-83
2023/05/23 02:22:01;;;;;;;16.67;7.97;;;;;;;;;;5059688;28;20033;-83
2023/05/23 02:24:26;;;;;;;12.27;6.32;;;;;;;;;;5060122;28;20046;-82
2023/05/23 02:26:53;;;;;;;11.45;5.65;;;;;;;;;;5070887;28;20489;-82
2023/05/23 02:29:19;;;;;;;12.45;6.55;;;;;;;;;;5058086;28;20093;-82
2023/05/23 02:31:45;;;;;;;11.57;6.78;;;;;;;;;;5066701;28;20025;-82
2023/05/23 02:34:11;;;;;;;14.13;5.85;;;;;;;;;;5057977;28;20025;-82
2023/05/23 02:36:38;;;;;;;20.80;7.05;;;;;;;;;;5062032;28;20102;-82
2023/05/23 02:39:04;;;;;;;9.88;5.72;;;;;;;;;;5064747;28;20028;-82
2023/05/23 02:41:30;;;;;;;9.30;5.40;;;;;;;;;;5070271;28;20047;-82
2023/05/23 02:43:56;;;;;;;11.20;6.88;;;;;;;;;;5063475;28;20019;-82
2023/05/23 02:46:22;;;;;;;11.18;6.20;;;;;;;;;;5065949;28;20074;-82
2023/05/23 02:48:48;;;;;;;11.07;6.97;;;;;;;;;;5067614;28;20095;-82
2023/05/23 02:51:14;;;;;;;10.32;5.53;;;;;;;;;;5024317;28;20028;-82
2023/05/23 02:53:40;;;;;;;10.93;5.82;;;;;;;;;;5066007;28;20082;-83
2023/05/23 02:56:07;;;;;;;13.05;6.30;;;;;;;;;;5050555;28;20039;-82
2023/05/23 02:58:34;;;;;;;11.05;6.20;;;;;;;;;;5051742;28;20033;-82
2023/05/23 03:01:01;;;;;;;12.73;6.97;;;;;;;;;;5051173;28;20036;-83
2023/05/23 03:03:27;;;;;;;10.77;6.22;;;;;;;;;;5064382;28;20028;-82
2023/05/23 03:05:53;;;;;;;13.43;6.47;;;13.90;99.90;;;;;;5062272;28;20024;-83
2023/05/23 03:08:19;;;;;;;17.52;6.57;;;;;;;;;;5045805;28;20552;-82
2023/05/23 03:10:45;;;;;;;11.23;6.30;;;;;;;;;;5060907;28;20111;-83
2023/05/23 03:13:11;;;;;;;16.13;6.78;;;;;;;;;;5065363;28;20060;-82
2023/05/23 03:15:37;;;;;;;12.93;6.43;;;;;;;;;;5046720;28;20148;-82
2023/05/23 03:18:03;;;;;;;10.98;6.07;;;;;;;;;;5046953;28;20029;-83
2023/05/23 03:20:29;;;;;;;13.20;6.15;;;;;;;;;;5062861;28;20032;-82
2023/05/23 03:22:55;;;;;;;10.57;5.93;;;;;;;;;;5048843;28;20048;-82
2023/05/23 03:25:21;;;;;;;10.88;6.03;;;;;;;;;;5061519;28;20012;-82
2023/05/23 03:27:47;;;;;;;11.55;6.50;;;;;;;;;;5044653;28;20053;-83
2023/05/23 03:30:13;;;;;;;17.27;6.95;;;;;;;;;;5058091;28;20032;-82
2023/05/23 03:32:39;;;;;;;16.23;6.38;;;;;;;;;;5060971;28;20035;-83
2023/05/23 03:35:05;;;;;;;15.10;6.25;;;;;;;;;;5051694;28;20033;-84
2023/05/23 03:37:31;;;;;;;13.88;6.22;;;;;;;;;;5033858;28;20106;-84
2023/05/23 03:39:57;;;;;;;10.80;6.25;;;;;;;;;;5060687;28;20514;-84
2023/05/23 03:42:23;;;;;;;12.25;6.68;;;;;;;;;;5032014;28;20028;-83
2023/05/23 03:44:49;;;;;;;10.50;6.57;;;;;;;;;;5038086;28;20043;-83
2023/05/23 03:47:15;;;;;;;11.55;6.50;;;;;;;;;;5034956;28;20056;-83
2023/05/23 03:49:41;;;;;;;13.05;7.05;;;;;;;;;;5048271;28;20032;-83
2023/05/23 03:52:07;;;;;;;10.18;5.60;;;;;;;;;;5067012;28;20025;-84
2023/05/23 03:54:33;;;;;;;12.07;6.57;;;;;;;;;;5056831;28;20040;-83
2023/05/23 03:56:59;;;;;;;11.82;6.20;;;;;;;;;;5070527;28;20029;-83
2023/05/23 03:59:25;;;;;;;14.43;6.85;;;;;;;;;;5054161;28;20033;-83
2023/05/23 04:01:50;;;;;;;13.27;7.60;;;;;;;;;;5042799;28;20025;-83
2023/05/23 04:04:17;;;;;;;10.73;6.00;;;;;;;;;;5067231;28;20055;-84
2023/05/23 04:06:43;;;;;;;15.10;6.82;;;;;;;;;;5058886;28;20031;-83
2023/05/23 04:09:09;;;;;;;14.10;6.53;;;;;;;;;;5063968;28;20028;-83
2023/05/23 04:11:35;;;;;;;13.35;7.13;;;;;;;;;;5071572;28;20029;-83
2023/05/23 04:14:01;;;;;;;13.18;6.60;;;;;;;;;;5069983;28;20036;-83
2023/05/23 04:16:31;;;;;;;11.00;5.53;;;;;;;;;;5060227;28;20071;-83
2023/05/23 04:18:57;;;;;;;11.88;6.35;;;;;;;;;;5053856;28;20179;-83
2023/05/23 04:21:23;;;;;;;11.93;6.20;;;;;;;;;;5068392;28;20556;-82
2023/05/23 04:23:49;;;;;;;12.35;6.70;;;;;;;;;;5038529;28;20037;-82
2023/05/23 04:26:15;;;;;;;9.70;5.38;;;;;;;;;;5068954;28;20085;-82
2023/05/23 04:28:45;;;;;;;14.75;7.53;;;;;;;;;;5056852;28;20068;-83
2023/05/23 04:31:11;;;;;;;12.60;5.95;;;;;;;;;;5061481;28;20025;-84
2023/05/23 04:33:37;;;;;;;13.18;6.30;;;;;;;;;;5056964;28;20029;-84
2023/05/23 04:36:04;;;;;;;14.95;7.30;;;;;;;;;;5055240;28;20481;-83
2023/05/23 04:38:30;;;;;;;9.48;5.95;;;;;;;;;;5057063;28;20031;-84
2023/05/23 04:40:57;;;;;;;14.77;6.72;;;;;;;;;;5059611;28;20089;-83
2023/05/23 04:43:25;;;;;;;9.75;5.72;;;;;;;;;;5058511;28;20021;-84
2023/05/23 04:45:53;;;;;;;13.13;6.38;;;;;;;;;;5056908;28;20024;-83
2023/05/23 04:48:22;;;;;;;17.27;7.10;;;;;;;;;;5063415;28;20030;-83
2023/05/23 04:50:50;;;;;;;11.30;6.47;;;;;;;;;;5073533;28;21265;-83
2023/05/23 04:53:16;;;;;;;11.98;5.88;;;;;;;;;;5053686;28;20071;-83
2023/05/23 04:55:42;;;;;;;14.73;6.85;;;;;;;;;;5047181;28;20069;-83
2023/05/23 04:58:08;;;;;;;11.77;7.57;;;;;;;;;;5062180;28;20033;-83
2023/05/23 05:00:34;;;;;;;11.10;6.00;;;;;;;;;;5057037;28;20048;-83
2023/05/23 05:03:00;;;;;;;12.77;7.53;;;;;;;;;;5061325;28;20025;-83
2023/05/23 05:05:27;;;;;;;13.38;6.80;;;;;;;;;;5065574;28;20098;-83
2023/05/23 05:07:53;;;;;;;10.85;6.55;;;;;;;;;;5055210;28;20033;-83
2023/05/23 05:10:19;;;;;;;11.93;6.63;;;;;;;;;;5054610;28;20072;-82
2023/05/23 05:12:48;;;;;;;13.00;7.22;;;;;;;;;;5056081;28;20033;-83
2023/05/23 05:15:14;;;;;;;11.35;6.88;;;;;;;;;;5052523;28;20633;-83
2023/05/23 05:17:40;;;;;;;19.90;7.00;;;;;;;;;;5056367;28;21229;-83
2023/05/23 05:20:07;;;;;;;12.35;6.63;;;;;;;;;;5063489;28;20035;-84
2023/05/23 05:22:35;;;;;;;11.27;6.78;;;;;;;;;;5043065;28;20033;-83
2023/05/23 05:25:02;;;;;;;10.82;6.28;;;;;;;;;;5068850;28;20023;-84
2023/05/23 05:27:28;;;;;;;12.10;6.15;;;;;;;;;;5067870;28;20115;-83
2023/05/23 05:29:57;;;;;;;11.30;6.82;;;;;;;;;;5068377;28;20102;-84
2023/05/23 05:32:23;;;;;;;13.23;6.90;;;;;;;;;;5070577;28;20029;-83
2023/05/23 05:34:49;;;;;;;10.95;6.32;;;;;;;;;;5071275;28;20029;-84
2023/05/23 05:37:15;;;;;;;11.48;6.97;;;;;;;;;;5071527;28;20027;-84
2023/05/23 05:39:41;;;;;;;15.88;7.63;;;;;;;;;;5069198;28;20024;-84
2023/05/23 05:42:07;;;;;;;13.77;7.43;;;;;;;;;;5064174;28;20034;-82
2023/05/23 05:44:33;;;;;;;15.70;8.10;;;;;;;;;;5052730;28;20032;-84
2023/05/23 05:46:59;;;;;;;13.13;7.35;;;;;;;;;;5046952;28;20111;-85
2023/05/23 05:49:25;;;;;;;12.07;6.80;;;;;;;;;;5064842;28;20117;-84
2023/05/23 05:51:51;;;;;;;12.18;6.97;;;;;;;;;;5065402;28;20035;-85
2023/05/23 05:54:17;;;;;;;12.38;6.90;;;;;;;;;;5054350;28;20036;-85
2023/05/23 05:56:43;;;;;;;19.42;9.75;;;;;;;;;;5037694;28;20034;-84
2023/05/23 05:59:09;;;;;;;18.45;8.02;;;;;;;;;;5060361;28;20546;-84
2023/05/23 06:01:36;;;;;;;15.02;7.45;;;;;;;;;;5062086;28;20400;-85
2023/05/23 06:04:02;;;;;;;18.73;8.07;;;;;;;;;;5044942;28;20488;-85
2023/05/23 06:06:28;;;;;;;18.52;8.82;;;;;;;;;;5036512;28;20118;-85
2023/05/23 06:08:54;;;;;;;16.02;8.15;;;;;;;;;;5065420;28;20020;-85
2023/05/23 06:11:20;;;;;;;16.67;9.20;;;;;;;;;;5060945;28;20043;-85
2023/05/23 06:13:46;;;;;;;17.05;8.85;;;;;;;;;;5053229;28;20067;-85
2023/05/23 06:16:13;;;;;;;20.90;9.10;;;;;;;;;;5057713;28;20094;-85
2023/05/23 06:18:40;;;;;;;18.95;9.20;;;;;;;;;;5048458;28;20039;-84
2023/05/23 06:21:06;;;;;;;16.08;8.98;;;;;;;;;;5038920;28;20039;-86
2023/05/23 06:23:32;;;;;;;17.00;10.35;;;;;;;;;;5054637;28;20024;-83
2023/05/23 06:25:58;;;;;;;17.55;9.55;;;;;;;;;;5064387;28;20029;-84
2023/05/23 06:28:24;;;;;;;17.90;10.60;;;;;;;;;;5068426;28;20427;-85
2023/05/23 06:30:50;;;;;;;19.63;10.35;;;;;;;;;;5069194;28;20060;-84
2023/05/23 06:33:16;;;;;;;20.08;9.13;;;;;;;;;;5055912;28;20052;-85
2023/05/23 06:35:42;;;;;;;18.10;10.65;;;;;;;;;;5053450;28;20102;-84
2023/05/23 06:38:08;;;;;;;16.92;9.95;;;;;;;;;;5056271;28;20545;-85
2023/05/23 06:40:34;;;;;;;19.38;10.80;;;;;;;;;;5067108;28;20024;-85
2023/05/23 06:43:00;;;;;;;20.25;9.70;;;;;;;;;;5057234;28;20079;-84
2023/05/23 06:45:26;;;;;;;15.30;8.27;;;;;;;;;;5050237;28;20024;-84
2023/05/23 06:47:52;;;;;;;12.55;7.82;;;;;;;;;;5054805;28;20087;-84
2023/05/23 06:50:21;;;;;;;11.77;6.95;;;;;;;;;;5072257;28;20292;-84
2023/05/23 06:52:47;;;;;;;13.27;8.10;;;;;;;;;;5045585;28;20039;-84
2023/05/23 06:55:17;;;;;;;13.15;7.60;;;;;;;;;;5060834;28;20025;-84
2023/05/23 06:57:43;;;;;;;16.95;6.82;;;;;;;;;;5061084;28;20025;-84
2023/05/23 07:00:10;;;;;;;14.95;7.72;;;;;;;;;;5062764;28;20044;-84
2023/05/23 07:02:36;;;;;;;13.18;7.20;;;;;;;;;;5033382;28;20653;-84
2023/05/23 07:05:02;;;;;;;10.18;6.43;;;;;;;;;;5050965;28;20164;-83
2023/05/23 07:07:28;;;;;;;14.15;7.05;;;;;;;;;;5041556;28;20025;-84
2023/05/23 07:09:54;;;;;;;12.30;7.05;;;;;;;;;;5058533;28;20035;-83
2023/05/23 07:12:20;;;;;;;14.43;7.65;;;;;;;;;;5042905;28;20021;-84
2023/05/23 07:14:46;;;;;;;17.50;8.55;;;;;;;;;;5043240;28;20044;-83
2023/05/23 07:17:12;;;;;;;16.10;8.32;;;;;;;;;;5060249;28;20055;-83
2023/05/23 07:19:38;;;;;;;11.95;7.00;;;;;;;;;;5062730;28;20113;-83
2023/05/23 07:22:04;;;;;;;12.15;6.85;;;;;;;;;;5053737;28;20495;-84
2023/05/23 07:24:30;;;;;;;18.48;8.18;;;;;;;;;;5020221;28;20801;-84
2023/05/23 07:26:56;;;;;;;12.65;8.25;;;;;;;;;;5049317;28;20047;-83
2023/05/23 07:29:22;;;;;;;12.50;7.32;;;;;;;;;;5057456;28;20028;-84
2023/05/23 07:31:48;;;;;;;12.35;7.53;;;;;;;;;;5070285;28;20039;-84
2023/05/23 07:34:14;;;;;;;11.30;6.40;;;;;;;;;;5058521;28;20048;-84
2023/05/23 07:36:41;;;;;;;15.85;6.95;;;;;;;;;;5056241;28;20032;-84
2023/05/23 07:39:07;;;;;;;11.43;7.18;;;;;;;;;;5053031;28;20032;-84
2023/05/23 07:41:33;;;;;;;10.82;6.30;;;;;;;;;;5063555;28;20493;-85
2023/05/23 07:43:59;;;;;;;10.13;6.00;;;;;;;;;;5066398;28;20056;-84
2023/05/23 07:46:25;;;;;;;9.15;5.35;;;;;;;;;;5074071;28;20012;-84
2023/05/23 07:48:51;;;;;;;12.50;5.53;;;;;;;;;;5062446;28;20265;-84
2023/05/23 07:51:20;;;;;;;7.50;4.78;;;;;;;;;;5074312;28;20279;-84
2023/05/23 07:53:46;;;;;;;11.00;5.57;;;;;;;;;;5075983;28;20041;-84
2023/05/23 07:56:11;;;;;;;10.70;4.93;;;;;;;;;;5056491;28;20036;-84
2023/05/23 07:58:37;;;;;;;9.75;5.15;;;;;;;;;;5064018;28;20028;-85
2023/05/23 08:01:04;;;;;;;8.13;4.18;;;;;;;;;;5062135;28;20470;-84
2023/05/23 08:03:30;;;;;;;11.10;5.18;;;;;;;;;;5062492;28;20039;-84
2023/05/23 08:05:57;;;;;;;10.93;4.90;;;;;;;;;;5072665;28;20060;-83
2023/05/23 08:08:23;;;;;;;7.13;4.47;;;;;;;;;;5066575;28;20055;-83
2023/05/23 08:10:49;;;;;;;7.38;4.07;;;;;;;;;;5060700;28;20020;-85
2023/05/23 08:13:15;;;;;;;10.95;5.35;;;;;;;;;;5061282;28;20737;-85
2023/05/23 08:15:41;;;;;;;9.77;5.63;;;;;;;;;;5059372;28;20033;-84
2023/05/23 08:18:07;;;;;;;8.90;4.35;;;;;;;;;;5053077;28;20033;-86
2023/05/23 08:20:33;;;;;;;6.97;4.00;;;;;;;;;;5063632;28;20032;-84
2023/05/23 08:22:59;;;;;;;7.13;3.95;;;;;;;;;;5056579;28;20133;-84
2023/05/23 08:25:29;;;;;;;7.78;4.13;;;;;;;;;;5048827;28;20086;-84
2023/05/23 08:28:00;;;;;;;11.55;4.97;;;;;;;;;;5048267;28;20028;-84
2023/05/23 08:30:26;;;;;;;9.50;4.38;;;;;;;;;;5047651;28;20109;-85
2023/05/23 08:32:54;;;;;;;14.57;5.30;;;;;;;;;;5073279;28;20033;-84
2023/05/23 08:35:20;;;;;;;8.45;4.63;;;;;;;;;;5050737;28;20024;-84
2023/05/23 08:37:46;;;;;;;7.70;4.05;;;;;;;;;;5069711;28;20029;-85
2023/05/23 08:40:21;;;;;;;7.72;4.45;;;19.70;99.90;;;;;;5049646;28;20652;-85
2023/05/23 08:42:48;;;;;;;7.38;4.22;;;;;;;;;;5062971;28;20047;-83
2023/05/23 08:45:14;;;;;;;7.65;4.32;;;;;;;;;;5042880;28;20028;-86
2023/05/23 08:47:44;;;;;;;7.10;4.18;;;;;;;;;;5062912;28;20497;-85
2023/05/23 08:50:15;;;;;;;7.88;4.07;;;;;;;;;;5048038;28;20025;-84
2023/05/23 08:52:55;;;;;;;7.35;3.75;;;;;;;;;;5065693;28;20028;-85
2023/05/23 08:55:25;;;;;;;10.85;4.82;;;;;;;;;;5042124;28;20029;-85
2023/05/23 08:57:51;;;;;;;9.93;4.43;;;;;;;;;;5068989;28;20024;-86
2023/05/23 09:00:18;;;;;;;14.65;4.45;;;;;;;;;;5052454;28;20033;-86
2023/05/23 09:02:44;;;;;;;9.45;5.00;;;;;;;;;;5070734;28;20025;-86
2023/05/23 09:05:11;;;;;;;7.75;4.63;;;;;;;;;;5057186;28;20024;-86
2023/05/23 09:07:37;;;;;;;9.07;5.15;;;;;;;;;;5065905;28;20514;-84
2023/05/23 09:10:04;;;;;;;8.73;4.13;;;;;;;;;;5070311;28;20021;-84
2023/05/23 09:12:32;;;;;;;10.13;5.53;;;;;;;;;;5051016;28;20024;-85
2023/05/23 09:14:58;;;;;;;11.70;4.65;;;;;;;;;;5041486;28;20156;-85
2023/05/23 09:17:24;;;;;;;7.45;4.18;;;;;;;;;;5063557;28;20069;-83
2023/05/23 09:19:50;;;;;;;7.68;4.72;;;;;;;;;;5062634;28;20021;-85
2023/05/23 09:22:16;;;;;;;10.63;5.50;;;;;;;;;;5054779;28;20602;-85
2023/05/23 09:24:43;;;;;;;10.02;5.25;;;;;;;;;;5056521;28;20516;-84
2023/05/23 09:27:09;;;;;;;10.77;5.53;;;;;;;;;;5057803;28;20029;-85
2023/05/23 09:29:39;;;;;;;9.07;5.07;;;;;;;;;;5041243;28;20458;-85
2023/05/23 09:32:12;;;;;;;9.73;4.93;;;;;;;;;;5068087;28;20027;-83
2023/05/23 09:34:55;;;;;;;;;;;20.20;99.90;;;;;;5047675;28;20033;-85
2023/05/23 09:37:23;;;;;;;8.73;4.20;;;;;;;;;;5062001;28;19908;-85
2023/05/23 09:39:49;;;;;;;14.98;6.22;;;;;;;;;;5042726;28;21650;-86
2023/05/23 09:42:25;;;;;;;17.42;7.65;;;;;;;;;;5040140;28;20024;-84
2023/05/23 09:44:51;;;;;;;10.20;3.55;;;;;;;;;;5066433;28;20543;-85
2023/05/23 09:47:17;;;;;;;5.55;3.40;;;;;;;;;;5062076;28;20029;-85
2023/05/23 09:49:43;;;;;;;5.72;3.42;;;;;;;;;;5069153;28;20024;-84
2023/05/23 09:52:10;;;;;;;7.00;3.67;;;;;;;;;;5048652;28;20568;-85
2023/05/23 09:54:36;;;;;;;7.90;4.00;;;;;;;;;;5049618;28;20086;-84
2023/05/23 09:57:03;;;;;;;5.60;2.55;;;;;;;;;;5046461;28;20040;-84
2023/05/23 09:59:31;;;;;;;7.43;3.33;;;;;;;;;;5074067;28;20028;-83
2023/05/23 10:01:57;;;;;;;7.95;3.83;;;;;;;;;;5068435;28;20078;-84
2023/05/23 10:04:25;;;;;;;7.80;4.60;;;;;;;;;;5051573;28;20480;-85
2023/05/23 10:06:52;;;;;;;7.47;4.00;;;;;;;;;;5063415;28;20082;-84
2023/05/23 10:09:19;;;;;;;8.10;4.55;;;;;;;;;;5051271;28;20023;-85
2023/05/23 10:11:48;;;;;;;5.80;3.50;;;;;;;;;;5053492;28;20124;-85
2023/05/23 10:14:15;;;;;;;7.35;3.20;;;;;;;;;;5052986;28;20023;-86
2023/05/23 10:16:47;;;;;;;5.07;3.17;;;;;;;;;;5051600;28;20277;-85
2023/05/23 10:19:20;;;;;;;6.00;2.70;;;;;;;;;;5073362;28;20385;-85
2023/05/23 10:21:49;;;;;;;4.68;2.38;;;;;;;;;;5047837;28;20024;-86
2023/05/23 10:24:16;;;;;;;5.45;2.42;;;;;;;;;;5065710;28;20021;-84
2023/05/23 10:26:43;;;;;;;4.00;2.13;;;;;;;;;;5061090;28;20111;-85
2023/05/23 10:29:09;;;;;;;4.68;2.20;;;;;;;;;;5062719;28;20283;-84
2023/05/23 10:31:35;;;;;;;3.17;1.75;;;;;;;;;;5063444;28;20384;-86
2023/05/23 10:34:09;;;;;;;6.22;1.63;;;;;;;;;;5064748;28;20107;-85
2023/05/23 10:36:51;;;;;;;3.38;1.58;;;;;;;;;;5058818;28;20039;-84
2023/05/23 10:39:32;;;;;;;2.67;1.42;;;;;;;;;;5059539;28;20028;-85
2023/05/23 10:42:18;;;;;;;2.60;1.20;;;22.00;98.50;;;;;;5059412;28;20032;-83
2023/05/23 10:44:44;;;;;;;2.25;1.02;;;;;;;;;;5040966;28;20036;-84
2023/05/23 10:47:11;;;;;;;2.08;1.23;;;;;;;;;;5054631;28;21645;-84
2023/05/23 10:49:41;;;;;;;3.03;1.38;;;;;;;;;;5060768;28;20020;-83
2023/05/23 10:52:08;;;;;;;2.28;1.23;;;;;;;;;;5041867;28;20026;-84
2023/05/23 10:54:53;;;;;;;3.13;1.27;;;;;;;;;;5047070;28;20104;-83
2023/05/23 10:57:20;;;;;;;3.60;1.33;;;;;;;;;;5034889;28;20041;-84
2023/05/23 10:59:49;;;;;;;2.45;1.35;;;;;;;;;;5056376;28;20477;-83
2023/05/23 11:02:16;;;;;;;2.28;1.08;;;;;;;;;;5035871;28;20473;-83
2023/05/23 11:04:42;;;;;;;1.67;1.05;;;;;;;;;;5040247;28;20122;-84
2023/05/23 11:07:29;;;;;;;2.95;0.95;;;22.40;95.30;;;;;;5046621;28;20021;-84
2023/05/23 11:10:05;;;;;;;1.50;0.70;;;;;;;;;;5047541;28;20083;-85
2023/05/23 11:12:41;;;;;;;2.53;1.08;;;;;;;;;;5057822;28;20028;-83
2023/05/23 11:15:16;;;;;;;3.60;0.98;;;;;;;;;;5034015;28;22191;-86
2023/05/23 11:17:58;;;;;;;1.55;0.82;;;;;;;;;;5053919;28;20055;-83
2023/05/23 11:20:27;;;;;;;4.53;1.08;;;21.60;94.80;;;;;;5048148;28;20032;-83
2023/05/23 11:22:54;;;;;;;2.35;0.93;;;21.70;95.90;;;;;;5051967;28;20024;-85
2023/05/23 11:25:21;;;;;;;3.95;1.02;;;;;;;;;;5048917;28;20098;-83
2023/05/23 11:27:48;;;;;;;;;;;21.70;95.40;;;;;;5060093;28;20029;-84
2023/05/23 11:30:16;;;;;;;2.47;0.95;;;;;;;;;;5064849;28;19915;-84
2023/05/23 11:32:42;;;;;;;;;;;21.50;96.60;;;;;;5048780;28;20033;-84
2023/05/23 11:35:09;;;;;;;;;;;21.50;96.50;;;;;;5071192;28;20288;-84
2023/05/23 11:37:35;;;;;;;;;;;;;;;;;;5062963;28;20295;-86
2023/05/23 11:40:19;;;;;;;;;;;21.30;96.90;;;;;;5059473;28;20051;-84
2023/05/23 11:42:44;;;;;;;;;;;21.20;97.50;;;;;;5061409;28;19923;-84
2023/05/23 11:45:10;;;;;;;;;;;21.20;97.50;;;;;;5055294;28;20292;-84
2023/05/23 11:47:42;;;;;;;;;;;21.00;97.90;;;;;;5052974;28;19916;-83
2023/05/23 11:50:07;;;;;;;;;;;;;;;;;;5047373;28;19907;-83
2023/05/23 11:52:33;;;;;;;2.28;1.23;;;;;;;;;;5056874;28;20313;-84
2023/05/23 11:55:00;;;;;;;1.58;0.82;;;;;;;;;;5063132;28;20031;-84
2023/05/23 11:57:27;;;;;;;2.85;1.45;;;;;;;;;;5047346;28;20055;-84
2023/05/23 11:59:52;;;;;;;;;;;20.80;99.60;;;;;;5054509;28;20029;-85
2023/05/23 12:02:20;;;;;;;;;;;21.10;99.30;;;;;;5070087;28;20379;-84
2023/05/23 12:04:45;;;;;;;;;;;21.30;98.20;;;;;;5054199;28;19915;-84
2023/05/23 12:07:11;;;;;;;;;;;;;;;;;;5046689;28;19917;-84
2023/05/23 12:09:43;;;;;;;;;;;21.70;98.00;;;;;;5064022;28;20388;-84
2023/05/23 12:12:09;;;;;;;;;;;21.70;97.10;;;;;;5036335;28;19944;-84
2023/05/23 12:14:35;;;;;;;;;;;21.80;96.40;;;;;;5062537;28;19912;-84
2023/05/23 12:17:00;;;;;;;;;;;;;;;;;;5054498;28;19994;-84
2023/05/23 12:19:26;;;;;;;;;;;21.90;96.60;;;;;;5047620;28;19916;-84
2023/05/23 12:21:52;;;;;;;;;;;;;;;;;;5051950;28;20421;-84
2023/05/23 12:24:18;;;;;;;;;;;22.00;95.90;;;;;;5062366;28;20324;-83
2023/05/23 12:26:44;;;;;;;;;;;;;;;;;;5060410;28;20403;-84
2023/05/23 12:29:10;;;;;;;;;;;;;;;;;;5042191;28;19912;-84
2023/05/23 12:31:36;;;;;;;;;;;21.70;96.60;;;;;;5077339;28;19924;-84
2023/05/23 12:34:01;;;;;;;;;;;21.70;96.80;;;;;;5065484;28;19972;-83
2023/05/23 12:36:31;;;;;;;;;;;21.70;96.90;;;;;;5062104;28;19924;-85
2023/05/23 12:39:03;;;;;;;;;;;22.00;96.90;;;;;;5059672;28;19908;-85
2023/05/23 12:41:28;;;;;;;;;;;21.90;95.50;;;;;;5057058;28;19950;-85
2023/05/23 12:43:55;;;;;;;;;;;21.80;95.20;;;;;;5066532;28;20320;-86
2023/05/23 12:46:21;;;;;;;;;;;21.70;95.90;;;;;;5051187;28;19999;-84
2023/05/23 12:48:47;;;;;;;;;;;;;;;;;;5061167;28;19919;-86
2023/05/23 12:51:13;;;;;;;;;;;21.30;97.30;;;;;;5042584;28;19912;-85
2023/05/23 12:53:40;;;;;;;;;;;;;;;;;;5044338;28;19919;-85
2023/05/23 12:56:06;;;;;;;;;;;;;;;;;;5037913;28;20442;-86
2023/05/23 12:58:33;;;;;;;;;;;;;;;;;;5037473;28;19993;-87
2023/05/23 13:00:58;;;;;;;;;;;;;;;;;;5029942;28;19913;-86
2023/05/23 13:03:24;;;;;;;;;;;21.70;97.70;;;;;;5034179;28;19932;-86
2023/05/23 13:05:51;;;;;;;;;;;;;;;;;;5062982;28;20057;-86
2023/05/23 13:08:17;;;;;;;;;;;21.80;96.80;;;;;;5034115;28;19916;-85
2023/05/23 13:10:43;;;;;;;;;;;22.10;96.40;;;;;;5062560;28;19908;-85
2023/05/23 13:13:09;;;;;;;;;;;;;;;;;;5046985;28;19923;-86
2023/05/23 13:15:36;;;;;;;;;;;;;;;;;;5035418;28;19961;-85
2023/05/23 13:18:01;;;;;;;;;;;22.30;95.70;;;;;;5054890;28;19919;-85
2023/05/23 13:20:30;;;;;;;;;;;22.60;96.10;;;;;;5048882;28;19916;-86
2023/05/23 13:22:56;;;;;;;;;;;;;;;;;;5063400;28;19912;-85
2023/05/23 13:25:22;;;;;;;;;;;;;;;;;;5043037;28;20348;-85
2023/05/23 13:27:47;;;;;;;;;;;21.70;96.20;;;;;;5067019;28;19963;-85
2023/05/23 13:30:13;;;;;;;;;;;21.30;97.90;;;;;;5046979;28;20266;-86
2023/05/23 13:32:39;;;;;;;;;;;;;;;;;;5061737;28;20402;-85
2023/05/23 13:35:05;;;;;;;;;;;21.00;98.60;;;;;;5048628;28;19912;-86
2023/05/23 13:37:31;;;;;;;;;;;;;;;;;;5063483;28;19908;-86
2023/05/23 13:39:56;;;;;;;;;;;21.20;98.50;;;;;;5037482;28;20105;-85
2023/05/23 13:42:22;;;;;;;;;;;21.40;98.30;;;;;;5057626;28;19927;-84
2023/05/23 13:44:47;;;;;;;;;;;21.30;97.10;;;;;;5055257;28;19922;-86
2023/05/23 13:47:14;;;;;;;;;;;22.40;97.70;;;;;;5045261;28;19916;-85
2023/05/23 13:49:42;;;;;;;;;;;21.50;97.90;;;;;;5062439;28;19912;-85
2023/05/23 13:52:07;;;;;;;;;;;21.40;97.80;;;;;;5044888;28;20356;-86
2023/05/23 13:54:32;;;;;;;;;;;21.50;98.10;;;;;;5047446;28;20073;-86
2023/05/23 13:57:00;;;;;;;3.40;1.80;;;;;;;;;;5053379;28;19927;-85
2023/05/23 13:59:26;;;;;;;2.65;1.60;;;;;;;;;;5073141;28;20225;-86
2023/05/23 14:01:53;;;;;;;7.75;1.13;;;;;;;;;;5040493;28;20029;-85
2023/05/23 14:04:19;;;;;;;2.53;1.30;;;;;;;;;;5053273;28;20496;-86
2023/05/23 14:06:45;;;;;;;3.58;1.30;;;;;;;;;;5061055;28;21813;-84
2023/05/23 14:09:11;;;;;;;2.42;1.20;;;;;;;;;;5046669;28;20398;-84
2023/05/23 14:11:37;;;;;;;1.85;1.25;;;;;;;;;;5067113;28;20055;-85
2023/05/23 14:14:03;;;;;;;3.40;1.13;;;;;;;;;;5055641;28;20242;-86
2023/05/23 14:16:29;;;;;;;1.23;0.98;;;;;;;;;;5049933;28;20090;-86
2023/05/23 14:18:55;;;;;;;3.85;1.40;;;;;;;;;;5061800;28;20036;-87
2023/05/23 14:21:21;;;;;;;1.48;0.90;;;;;;;;;;5039379;28;20754;-87
2023/05/23 14:23:47;;;;;;;;;;;21.90;96.30;;;;;;5054999;28;20055;-86
2023/05/23 14:26:12;;;;;;;;;;;21.70;96.60;;;;;;5052027;28;19948;-87
2023/05/23 14:28:38;;;;;;;;;;;21.80;96.90;;;;;;5040252;28;19969;-85
2023/05/23 14:31:03;;;;;;;;;;;21.60;96.70;;;;;;5037775;28;19916;-84
2023/05/23 14:33:29;;;;;;;;;;;;;;;;;;5053852;28;19916;-86
2023/05/23 14:35:55;;;;;;;;;;;21.70;95.80;;;;;;5067163;28;20330;-86